sensor_id;sensor_type;location;lat;lon;timestamp;pressure;altitude;pressure_sealevel;temperature;humidity
3917;BME280;1973;50.518;7.318;2022-10-31T00:00:31;101409.41;;;12.58;100.00
3917;BME280;1973;50.518;7.318;2022-10-31T00:02:58;101401.75;;;12.53;100.00
3917;BME280;1973;50.518;7.318;2022-10-31T00:05:25;101396.66;;;12.50;100.00
3917;BME280;1973;50.518;7.318;2022-10-31T00:07:52;101400.72;;;12.48;100.00
3917;BME280;1973;50.518;7.318;2022-10-31T00:10:19;101401.34;;;12.43;100.00
3917;BME280;1973;50.518;7.318;2022-10-31T00:12:45;101406.44;;;12.40;100.00
3917;BME280;1973;50.518;7.318;2022-10-31T00:15:12;101415.78;;;12.39;100.00
3917;BME280;1973;50.518;7.318;2022-10-31T00:17:38;101430.44;;;12.39;100.00
3917;BME280;1973;50.518;7.318;2022-10-31T00:20:05;101435.34;;;12.37;100.00
3917;BME280;1973;50.518;7.318;2022-10-31T00:22:32;101439.34;;;12.35;100.00
3917;BME280;1973;50.518;7.318;2022-10-31T00:24:58;101439.59;;;12.33;100.00
3917;BME280;1973;50.518;7.318;2022-10-31T00:27:25;101444.25;;;12.33;100.00
3917;BME280;1973;50.518;7.318;2022-10-31T00:29:51;101448.06;;;12.32;100.00
3917;BME280;1973;50.518;7.318;2022-10-31T00:32:18;101450.41;;;12.28;100.00
3917;BME280;1973;50.518;7.318;2022-10-31T00:34:44;101447.88;;;12.27;100.00
3917;BME280;1973;50.518;7.318;2022-10-31T00:37:11;101446.16;;;12.26;100.00
3917;BME280;1973;50.518;7.318;2022-10-31T00:39:37;101447.88;;;12.27;100.00
3917;BME280;1973;50.518;7.318;2022-10-31T00:42:03;101444.44;;;12.25;100.00
3917;BME280;1973;50.518;7.318;2022-10-31T00:44:30;101439.34;;;12.22;100.00
3917;BME280;1973;50.518;7.318;2022-10-31T00:46:56;101443.41;;;12.19;100.00
3917;BME280;1973;50.518;7.318;2022-10-31T00:49:23;101452.50;;;12.19;100.00
3917;BME280;1973;50.518;7.318;2022-10-31T00:51:49;101455.25;;;12.19;100.00
3917;BME280;1973;50.518;7.318;2022-10-31T00:54:15;101445.94;;;12.20;100.00
3917;BME280;1973;50.518;7.318;2022-10-31T00:56:42;101452.31;;;12.21;100.00
3917;BME280;1973;50.518;7.318;2022-10-31T00:59:08;101446.78;;;12.21;100.00
3917;BME280;1973;50.518;7.318;2022-10-31T01:01:35;101447.44;;;12.23;100.00
3917;BME280;1973;50.518;7.318;2022-10-31T01:04:01;101452.09;;;12.23;100.00
3917;BME280;1973;50.518;7.318;2022-10-31T01:06:28;101449.53;;;12.21;100.00
3917;BME280;1973;50.518;7.318;2022-10-31T01:08:54;101444.44;;;12.18;100.00
3917;BME280;1973;50.518;7.318;2022-10-31T01:11:22;101450.16;;;12.16;100.00
3917;BME280;1973;50.518;7.318;2022-10-31T01:13:51;101449.31;;;12.16;100.00
3917;BME280;1973;50.518;7.318;2022-10-31T01:16:19;101444.03;;;12.14;100.00
3917;BME280;1973;50.518;7.318;2022-10-31T01:18:46;101437.44;;;12.15;100.00
3917;BME280;1973;50.518;7.318;2022-10-31T01:21:19;101441.25;;;12.14;100.00
3917;BME280;1973;50.518;7.318;2022-10-31T01:23:46;101427.22;;;12.16;100.00
3917;BME280;1973;50.518;7.318;2022-10-31T01:26:24;101427.03;;;12.17;100.00
3917;BME280;1973;50.518;7.318;2022-10-31T01:28:59;101425.97;;;12.18;100.00
3917;BME280;1973;50.518;7.318;2022-10-31T01:31:28;101413.03;;;12.19;100.00
3917;BME280;1973;50.518;7.318;2022-10-31T01:33:56;101410.47;;;12.17;100.00
3917;BME280;1973;50.518;7.318;2022-10-31T01:36:28;101406.66;;;12.18;100.00
3917;BME280;1973;50.518;7.318;2022-10-31T01:39:00;101409.63;;;12.17;100.00
3917;BME280;1973;50.518;7.318;2022-10-31T01:41:29;101414.28;;;12.16;100.00
3917;BME280;1973;50.518;7.318;2022-10-31T01:46:54;101407.28;;;12.14;100.00
3917;BME280;1973;50.518;7.318;2022-10-31T01:49:26;101404.53;;;12.14;100.00
3917;BME280;1973;50.518;7.318;2022-10-31T01:58:09;101409.63;;;12.10;100.00
3917;BME280;1973;50.518;7.318;2022-10-31T02:00:39;101410.66;;;12.09;100.00
3917;BME280;1973;50.518;7.318;2022-10-31T02:03:08;101407.06;;;12.09;100.00
3917;BME280;1973;50.518;7.318;2022-10-31T02:05:35;101410.03;;;12.07;100.00
3917;BME280;1973;50.518;7.318;2022-10-31T02:08:18;101408.34;;;12.06;100.00
3917;BME280;1973;50.518;7.318;2022-10-31T02:10:46;101415.13;;;12.04;100.00
3917;BME280;1973;50.518;7.318;2022-10-31T02:13:13;101415.34;;;12.02;100.00
3917;BME280;1973;50.518;7.318;2022-10-31T02:15:42;101412.13;;;11.99;100.00
3917;BME280;1973;50.518;7.318;2022-10-31T02:18:10;101416.38;;;11.95;100.00
3917;BME280;1973;50.518;7.318;2022-10-31T02:20:45;101416.38;;;11.95;100.00
3917;BME280;1973;50.518;7.318;2022-10-31T02:34:18;101419.75;;;11.84;100.00
3917;BME280;1973;50.518;7.318;2022-10-31T02:37:01;101414.47;;;11.82;100.00
3917;BME280;1973;50.518;7.318;2022-10-31T02:39:44;101422.06;;;11.80;100.00
3917;BME280;1973;50.518;7.318;2022-10-31T02:42:26;101407.84;;;11.77;100.00
3917;BME280;1973;50.518;7.318;2022-10-31T02:45:17;101409.75;;;11.76;100.00
3917;BME280;1973;50.518;7.318;2022-10-31T02:47:48;101402.34;;;11.77;100.00
3917;BME280;1973;50.518;7.318;2022-10-31T02:50:26;101403.19;;;11.77;100.00
3917;BME280;1973;50.518;7.318;2022-10-31T02:52:54;101399.78;;;11.75;100.00
3917;BME280;1973;50.518;7.318;2022-10-31T02:57:58;101398.72;;;11.76;100.00
3917;BME280;1973;50.518;7.318;2022-10-31T03:00:27;101393.19;;;11.76;100.00
3917;BME280;1973;50.518;7.318;2022-10-31T03:03:10;101399.16;;;11.80;100.00
3917;BME280;1973;50.518;7.318;2022-10-31T03:06:00;101401.72;;;11.81;100.00
3917;BME280;1973;50.518;7.318;2022-10-31T03:08:47;101403.41;;;11.82;100.00
3917;BME280;1973;50.518;7.318;2022-10-31T03:11:18;101402.16;;;11.85;100.00
3917;BME280;1973;50.518;7.318;2022-10-31T03:13:57;101412.94;;;11.86;100.00
3917;BME280;1973;50.518;7.318;2022-10-31T03:19:10;101413.81;;;11.87;100.00
3917;BME280;1973;50.518;7.318;2022-10-31T03:21:45;101416.78;;;11.85;100.00
3917;BME280;1973;50.518;7.318;2022-10-31T03:24:14;101417.22;;;11.82;100.00
3917;BME280;1973;50.518;7.318;2022-10-31T03:26:45;101413.16;;;11.78;100.00
3917;BME280;1973;50.518;7.318;2022-10-31T03:29:16;101421.00;;;11.75;100.00
3917;BME280;1973;50.518;7.318;2022-10-31T03:34:14;101422.66;;;11.69;100.00
3917;BME280;1973;50.518;7.318;2022-10-31T03:36:44;101418.41;;;11.66;100.00
3917;BME280;1973;50.518;7.318;2022-10-31T03:39:13;101412.88;;;11.66;100.00
3917;BME280;1973;50.518;7.318;2022-10-31T03:41:44;101412.22;;;11.64;100.00
3917;BME280;1973;50.518;7.318;2022-10-31T03:44:16;101417.75;;;11.64;100.00
3917;BME280;1973;50.518;7.318;2022-10-31T03:46:43;101420.72;;;11.63;100.00
3917;BME280;1973;50.518;7.318;2022-10-31T03:49:11;101412.47;;;11.63;100.00
3917;BME280;1973;50.518;7.318;2022-10-31T03:51:45;101406.94;;;11.63;100.00
3917;BME280;1973;50.518;7.318;2022-10-31T03:54:28;101413.50;;;11.62;100.00
3917;BME280;1973;50.518;7.318;2022-10-31T03:59:43;101416.47;;;11.60;100.00
3917;BME280;1973;50.518;7.318;2022-10-31T04:02:14;101419.44;;;11.59;100.00
3917;BME280;1973;50.518;7.318;2022-10-31T04:04:43;101409.47;;;11.58;100.00
3917;BME280;1973;50.518;7.318;2022-10-31T04:07:11;101413.69;;;11.54;100.00
3917;BME280;1973;50.518;7.318;2022-10-31T04:09:42;101412.00;;;11.53;100.00
3917;BME280;1973;50.518;7.318;2022-10-31T04:12:12;101410.72;;;11.49;100.00
3917;BME280;1973;50.518;7.318;2022-10-31T04:14:43;101413.66;;;11.47;100.00
3917;BME280;1973;50.518;7.318;2022-10-31T04:17:13;101405.59;;;11.46;100.00
3917;BME280;1973;50.518;7.318;2022-10-31T04:19:41;101404.97;;;11.44;100.00
3917;BME280;1973;50.518;7.318;2022-10-31T04:22:07;101402.19;;;11.44;100.00
3917;BME280;1973;50.518;7.318;2022-10-31T04:24:34;101404.97;;;11.44;100.00
3917;BME280;1973;50.518;7.318;2022-10-31T04:27:00;101406.84;;;11.43;100.00
3917;BME280;1973;50.518;7.318;2022-10-31T04:29:26;101405.81;;;11.44;100.00
3917;BME280;1973;50.518;7.318;2022-10-31T04:31:53;101398.41;;;11.45;100.00
3917;BME280;1973;50.518;7.318;2022-10-31T04:34:19;101393.94;;;11.44;100.00
3917;BME280;1973;50.518;7.318;2022-10-31T04:36:46;101394.97;;;11.43;100.00
3917;BME280;1973;50.518;7.318;2022-10-31T04:39:12;101394.97;;;11.43;100.00
3917;BME280;1973;50.518;7.318;2022-10-31T04:41:39;101397.97;;;11.41;100.00
3917;BME280;1973;50.518;7.318;2022-10-31T04:44:05;101395.59;;;11.38;100.00
3917;BME280;1973;50.518;7.318;2022-10-31T04:46:32;101405.13;;;11.36;100.00
3917;BME280;1973;50.518;7.318;2022-10-31T04:48:58;101403.41;;;11.35;100.00
3917;BME280;1973;50.518;7.318;2022-10-31T04:51:24;101395.38;;;11.33;100.00
3917;BME280;1973;50.518;7.318;2022-10-31T04:53:51;101399.84;;;11.34;100.00
3917;BME280;1973;50.518;7.318;2022-10-31T04:56:17;101407.25;;;11.34;100.00
3917;BME280;1973;50.518;7.318;2022-10-31T04:58:44;101405.34;;;11.34;100.00
3917;BME280;1973;50.518;7.318;2022-10-31T05:01:10;101405.56;;;11.33;100.00
3917;BME280;1973;50.518;7.318;2022-10-31T05:03:37;101397.28;;;11.33;100.00
3917;BME280;1973;50.518;7.318;2022-10-31T05:06:06;101392.41;;;11.35;100.00
3917;BME280;1973;50.518;7.318;2022-10-31T05:08:32;101389.44;;;11.36;100.00
3917;BME280;1973;50.518;7.318;2022-10-31T05:11:00;101385.41;;;11.39;100.00
3917;BME280;1973;50.518;7.318;2022-10-31T05:13:30;101380.56;;;11.41;100.00
3917;BME280;1973;50.518;7.318;2022-10-31T05:15:57;101381.19;;;11.43;100.00
3917;BME280;1973;50.518;7.318;2022-10-31T05:18:23;101385.66;;;11.44;100.00
3917;BME280;1973;50.518;7.318;2022-10-31T05:20:50;101375.47;;;11.44;100.00
3917;BME280;1973;50.518;7.318;2022-10-31T05:23:16;101372.50;;;11.46;100.00
3917;BME280;1973;50.518;7.318;2022-10-31T05:25:42;101374.22;;;11.47;100.00
3917;BME280;1973;50.518;7.318;2022-10-31T05:28:09;101379.72;;;11.47;100.00
3917;BME280;1973;50.518;7.318;2022-10-31T05:30:36;101376.97;;;11.47;100.00
3917;BME280;1973;50.518;7.318;2022-10-31T05:33:02;101368.69;;;11.47;100.00
3917;BME280;1973;50.518;7.318;2022-10-31T05:35:31;101379.72;;;11.47;100.00
3917;BME280;1973;50.518;7.318;2022-10-31T05:37:59;101379.72;;;11.47;100.00
3917;BME280;1973;50.518;7.318;2022-10-31T05:40:26;101379.72;;;11.47;100.00
3917;BME280;1973;50.518;7.318;2022-10-31T05:42:54;101371.25;;;11.48;100.00
3917;BME280;1973;50.518;7.318;2022-10-31T05:45:22;101376.78;;;11.48;100.00
3917;BME280;1973;50.518;7.318;2022-10-31T05:47:53;101367.41;;;11.49;100.00
3917;BME280;1973;50.518;7.318;2022-10-31T05:50:20;101368.06;;;11.51;100.00
3917;BME280;1973;50.518;7.318;2022-10-31T05:52:47;101368.94;;;11.52;100.00
3917;BME280;1973;50.518;7.318;2022-10-31T05:55:13;101368.28;;;11.50;100.00
3917;BME280;1973;50.518;7.318;2022-10-31T05:57:40;101371.03;;;11.50;100.00
3917;BME280;1973;50.518;7.318;2022-10-31T06:00:07;101367.22;;;11.51;100.00
3917;BME280;1973;50.518;7.318;2022-10-31T06:02:33;101361.72;;;11.51;100.00
3917;BME280;1973;50.518;7.318;2022-10-31T06:05:01;101359.81;;;11.51;100.00
3917;BME280;1973;50.518;7.318;2022-10-31T06:07:32;101361.72;;;11.51;100.00
3917;BME280;1973;50.518;7.318;2022-10-31T06:09:58;101359.16;;;11.49;100.00
3917;BME280;1973;50.518;7.318;2022-10-31T06:12:25;101361.09;;;11.49;100.00
3917;BME280;1973;50.518;7.318;2022-10-31T06:14:51;101364.47;;;11.51;100.00
3917;BME280;1973;50.518;7.318;2022-10-31T06:17:18;101378.25;;;11.51;100.00
3917;BME280;1973;50.518;7.318;2022-10-31T06:19:44;101365.31;;;11.51;100.00
3917;BME280;1973;50.518;7.318;2022-10-31T06:22:11;101364.28;;;11.52;100.00
3917;BME280;1973;50.518;7.318;2022-10-31T06:24:38;101369.56;;;11.54;100.00
3917;BME280;1973;50.518;7.318;2022-10-31T06:27:04;101367.66;;;11.54;100.00
3917;BME280;1973;50.518;7.318;2022-10-31T06:29:31;101372.97;;;11.56;100.00
3917;BME280;1973;50.518;7.318;2022-10-31T06:31:58;101358.53;;;11.54;100.00
3917;BME280;1973;50.518;7.318;2022-10-31T06:34:24;101360.25;;;11.55;100.00
3917;BME280;1973;50.518;7.318;2022-10-31T06:36:50;101354.72;;;11.55;100.00
3917;BME280;1973;50.518;7.318;2022-10-31T06:39:17;101353.69;;;11.56;100.00
3917;BME280;1973;50.518;7.318;2022-10-31T06:41:43;101361.53;;;11.59;100.00
3917;BME280;1973;50.518;7.318;2022-10-31T06:44:10;101356.00;;;11.59;100.00
3917;BME280;1973;50.518;7.318;2022-10-31T06:46:36;101359.41;;;11.61;100.00
3917;BME280;1973;50.518;7.318;2022-10-31T06:49:04;101360.69;;;11.65;100.00
3917;BME280;1973;50.518;7.318;2022-10-31T06:51:30;101362.38;;;11.66;100.00
3917;BME280;1973;50.518;7.318;2022-10-31T06:53:56;101362.38;;;11.66;100.00
3917;BME280;1973;50.518;7.318;2022-10-31T06:56:23;101361.97;;;11.69;100.00
3917;BME280;1973;50.518;7.318;2022-10-31T06:58:49;101363.28;;;11.73;100.00
3917;BME280;1973;50.518;7.318;2022-10-31T07:01:16;101363.28;;;11.80;100.00
3917;BME280;1973;50.518;7.318;2022-10-31T07:03:42;101354.38;;;11.84;100.00
3917;BME280;1973;50.518;7.318;2022-10-31T07:06:09;101361.19;;;11.88;100.00
3917;BME280;1973;50.518;7.318;2022-10-31T07:08:35;101368.41;;;11.96;100.00
3917;BME280;1973;50.518;7.318;2022-10-31T07:11:02;101369.69;;;12.00;100.00
3917;BME280;1973;50.518;7.318;2022-10-31T07:13:28;101374.16;;;12.07;100.00
3917;BME280;1973;50.518;7.318;2022-10-31T07:16:00;101368.00;;;12.18;100.00
3917;BME280;1973;50.518;7.318;2022-10-31T07:18:27;101368.00;;;12.25;100.00
3917;BME280;1973;50.518;7.318;2022-10-31T07:20:53;101365.88;;;12.34;100.00
3917;BME280;1973;50.518;7.318;2022-10-31T07:23:20;101362.88;;;12.42;100.00
3917;BME280;1973;50.518;7.318;2022-10-31T07:25:47;101362.91;;;12.48;100.00
3917;BME280;1973;50.518;7.318;2022-10-31T07:28:14;101355.66;;;12.54;100.00
3917;BME280;1973;50.518;7.318;2022-10-31T07:30:40;101360.94;;;12.62;100.00
3917;BME280;1973;50.518;7.318;2022-10-31T07:33:08;101351.78;;;12.68;100.00
3917;BME280;1973;50.518;7.318;2022-10-31T07:35:34;101354.78;;;12.73;100.00
3917;BME280;1973;50.518;7.318;2022-10-31T07:38:10;101343.28;;;12.76;100.00
3917;BME280;1973;50.518;7.318;2022-10-31T07:40:37;101351.13;;;12.79;100.00
3917;BME280;1973;50.518;7.318;2022-10-31T07:43:04;101366.22;;;12.83;100.00
3917;BME280;1973;50.518;7.318;2022-10-31T07:45:36;101358.56;;;12.85;100.00
3917;BME280;1973;50.518;7.318;2022-10-31T07:48:03;101354.31;;;12.89;100.00
3917;BME280;1973;50.518;7.318;2022-10-31T07:50:31;101352.81;;;12.93;100.00
3917;BME280;1973;50.518;7.318;2022-10-31T07:55:27;101354.69;;;12.99;100.00
3917;BME280;1973;50.518;7.318;2022-10-31T07:58:19;101361.50;;;13.03;100.00
3917;BME280;1973;50.518;7.318;2022-10-31T08:00:46;101362.09;;;13.05;100.00
3917;BME280;1973;50.518;7.318;2022-10-31T08:03:15;101357.66;;;13.11;100.00
3917;BME280;1973;50.518;7.318;2022-10-31T08:05:42;101364.66;;;13.13;100.00
3917;BME280;1973;50.518;7.318;2022-10-31T08:08:08;101363.16;;;13.18;100.00
3917;BME280;1973;50.518;7.318;2022-10-31T08:10:36;101364.19;;;13.23;100.00
3917;BME280;1973;50.518;7.318;2022-10-31T08:13:10;101359.72;;;13.29;100.00
3917;BME280;1973;50.518;7.318;2022-10-31T08:15:37;101348.22;;;13.32;100.00
3917;BME280;1973;50.518;7.318;2022-10-31T08:18:12;101356.72;;;13.37;100.00
3917;BME280;1973;50.518;7.318;2022-10-31T08:20:40;101343.50;;;13.39;100.00
3917;BME280;1973;50.518;7.318;2022-10-31T08:23:06;101346.44;;;13.44;100.00
3917;BME280;1973;50.518;7.318;2022-10-31T08:25:34;101354.31;;;13.47;100.00
3917;BME280;1973;50.518;7.318;2022-10-31T08:28:05;101345.00;;;13.35;100.00
3917;BME280;1973;50.518;7.318;2022-10-31T08:30:34;101349.03;;;13.39;100.00
3917;BME280;1973;50.518;7.318;2022-10-31T08:35:31;101346.25;;;13.39;100.00
3917;BME280;1973;50.518;7.318;2022-10-31T08:37:58;101351.97;;;13.44;100.00
3917;BME280;1973;50.518;7.318;2022-10-31T08:40:26;101347.06;;;13.46;100.00
3917;BME280;1973;50.518;7.318;2022-10-31T08:45:24;101344.41;;;13.64;100.00
3917;BME280;1973;50.518;7.318;2022-10-31T08:47:50;101336.28;;;13.69;100.00
3917;BME280;1973;50.518;7.318;2022-10-31T08:50:17;101347.16;;;13.64;100.00
3917;BME280;1973;50.518;7.318;2022-10-31T08:52:44;101345.44;;;13.70;100.00
3917;BME280;1973;50.518;7.318;2022-10-31T08:55:30;101345.22;;;13.71;100.00
3917;BME280;1973;50.518;7.318;2022-10-31T08:57:57;101342.44;;;13.71;100.00
3917;BME280;1973;50.518;7.318;2022-10-31T09:00:25;101342.63;;;13.76;100.00
3917;BME280;1973;50.518;7.318;2022-10-31T09:02:59;101341.97;;;13.81;100.00
3917;BME280;1973;50.518;7.318;2022-10-31T09:05:26;101331.56;;;13.76;100.00
3917;BME280;1973;50.518;7.318;2022-10-31T09:08:00;101330.00;;;13.87;100.00
3917;BME280;1973;50.518;7.318;2022-10-31T09:10:28;101324.84;;;13.90;100.00
3917;BME280;1973;50.518;7.318;2022-10-31T09:13:07;101323.97;;;13.96;100.00
3917;BME280;1973;50.518;7.318;2022-10-31T09:15:35;101317.91;;;14.06;100.00
3917;BME280;1973;50.518;7.318;2022-10-31T09:18:02;101315.47;;;14.16;100.00
3917;BME280;1973;50.518;7.318;2022-10-31T09:20:31;101314.97;;;14.26;100.00
3917;BME280;1973;50.518;7.318;2022-10-31T09:23:03;101317.91;;;14.37;100.00
3917;BME280;1973;50.518;7.318;2022-10-31T09:25:30;101309.50;;;14.44;100.00
3917;BME280;1973;50.518;7.318;2022-10-31T09:27:58;101303.91;;;14.50;100.00
3917;BME280;1973;50.518;7.318;2022-10-31T09:30:33;101302.97;;;14.56;100.00
3917;BME280;1973;50.518;7.318;2022-10-31T09:33:11;101296.75;;;14.61;100.00
3917;BME280;1973;50.518;7.318;2022-10-31T09:35:38;101294.44;;;14.58;100.00
3917;BME280;1973;50.518;7.318;2022-10-31T09:38:09;101296.91;;;14.66;100.00
3917;BME280;1973;50.518;7.318;2022-10-31T09:40:47;101296.38;;;14.76;100.00
3917;BME280;1973;50.518;7.318;2022-10-31T09:51:40;101286.13;;;14.94;100.00
3917;BME280;1973;50.518;7.318;2022-10-31T09:54:16;101281.19;;;14.96;100.00
3917;BME280;1973;50.518;7.318;2022-10-31T09:56:44;101280.84;;;15.04;100.00
3917;BME280;1973;50.518;7.318;2022-10-31T09:59:24;101280.53;;;15.13;100.00
3917;BME280;1973;50.518;7.318;2022-10-31T10:01:59;101282.41;;;15.19;100.00
3917;BME280;1973;50.518;7.318;2022-10-31T10:10:18;101274.09;;;15.30;100.00
3917;BME280;1973;50.518;7.318;2022-10-31T10:21:34;101256.22;;;15.44;100.00
3917;BME280;1973;50.518;7.318;2022-10-31T10:27:06;101262.56;;;15.33;100.00
3917;BME280;1973;50.518;7.318;2022-10-31T10:29:46;101257.84;;;15.34;100.00
3917;BME280;1973;50.518;7.318;2022-10-31T10:32:26;101254.63;;;15.37;100.00
3917;BME280;1973;50.518;7.318;2022-10-31T10:34:59;101248.97;;;15.43;100.00
3917;BME280;1973;50.518;7.318;2022-10-31T10:37:32;101247.50;;;15.41;100.00
3917;BME280;1973;50.518;7.318;2022-10-31T10:40:27;101241.63;;;15.49;100.00
3917;BME280;1973;50.518;7.318;2022-10-31T10:51:37;101234.94;;;15.68;100.00
3917;BME280;1973;50.518;7.318;2022-10-31T10:54:35;101236.28;;;15.77;100.00
3917;BME280;1973;50.518;7.318;2022-10-31T11:00:01;101223.84;;;15.91;100.00
3917;BME280;1973;50.518;7.318;2022-10-31T11:02:31;101215.63;;;15.96;100.00
3917;BME280;1973;50.518;7.318;2022-10-31T11:05:00;101199.09;;;16.01;100.00
3917;BME280;1973;50.518;7.318;2022-10-31T11:07:38;101198.13;;;16.07;100.00
3917;BME280;1973;50.518;7.318;2022-10-31T11:10:06;101198.50;;;16.11;100.00
3917;BME280;1973;50.518;7.318;2022-10-31T11:12:42;101196.56;;;16.12;100.00
3917;BME280;1973;50.518;7.318;2022-10-31T11:15:20;101186.28;;;16.24;100.00
3917;BME280;1973;50.518;7.318;2022-10-31T11:17:51;101197.53;;;16.29;100.00
3917;BME280;1973;50.518;7.318;2022-10-31T11:22:46;101191.09;;;16.40;100.00
3917;BME280;1973;50.518;7.318;2022-10-31T11:27:46;101176.06;;;16.52;100.00
3917;BME280;1973;50.518;7.318;2022-10-31T11:30:14;101173.56;;;16.51;100.00
3917;BME280;1973;50.518;7.318;2022-10-31T11:32:48;101179.47;;;16.54;100.00
3917;BME280;1973;50.518;7.318;2022-10-31T11:35:17;101179.00;;;16.58;100.00
3917;BME280;1973;50.518;7.318;2022-10-31T11:37:46;101164.88;;;16.59;100.00
3917;BME280;1973;50.518;7.318;2022-10-31T11:40:25;101151.16;;;16.69;100.00
3917;BME280;1973;50.518;7.318;2022-10-31T11:42:55;101146.19;;;16.71;100.00
3917;BME280;1973;50.518;7.318;2022-10-31T11:47:52;101142.97;;;16.91;100.00
3917;BME280;1973;50.518;7.318;2022-10-31T11:50:34;101141.72;;;16.98;100.00
3917;BME280;1973;50.518;7.318;2022-10-31T11:53:02;101139.41;;;17.07;100.00
3917;BME280;1973;50.518;7.318;2022-10-31T11:55:36;101126.41;;;17.13;100.00
3917;BME280;1973;50.518;7.318;2022-10-31T11:58:03;101120.16;;;17.22;100.00
3917;BME280;1973;50.518;7.318;2022-10-31T12:00:33;101113.09;;;17.31;100.00
3917;BME280;1973;50.518;7.318;2022-10-31T12:03:32;101114.44;;;17.45;100.00
3917;BME280;1973;50.518;7.318;2022-10-31T12:06:23;101110.25;;;17.43;100.00
3917;BME280;1973;50.518;7.318;2022-10-31T12:08:51;101101.53;;;17.56;100.00
3917;BME280;1973;50.518;7.318;2022-10-31T12:14:00;101092.16;;;17.79;100.00
3917;BME280;1973;50.518;7.318;2022-10-31T12:19:36;101093.91;;;18.02;100.00
3917;BME280;1973;50.518;7.318;2022-10-31T12:22:13;101091.00;;;18.13;100.00
3917;BME280;1973;50.518;7.318;2022-10-31T12:24:53;101088.00;;;18.20;100.00
3917;BME280;1973;50.518;7.318;2022-10-31T12:30:39;101078.28;;;18.22;100.00
3917;BME280;1973;50.518;7.318;2022-10-31T12:33:35;101081.91;;;18.23;100.00
3917;BME280;1973;50.518;7.318;2022-10-31T12:41:49;101054.75;;;18.35;100.00
3917;BME280;1973;50.518;7.318;2022-10-31T12:44:40;101048.59;;;18.33;100.00
3917;BME280;1973;50.518;7.318;2022-10-31T12:47:40;101021.22;;;18.30;100.00
3917;BME280;1973;50.518;7.318;2022-10-31T12:53:34;101026.56;;;18.10;100.00
3917;BME280;1973;50.518;7.318;2022-10-31T12:58:53;101022.16;;;18.14;100.00
3917;BME280;1973;50.518;7.318;2022-10-31T13:01:28;101009.97;;;18.20;100.00
3917;BME280;1973;50.518;7.318;2022-10-31T13:06:51;100988.25;;;18.22;100.00
3917;BME280;1973;50.518;7.318;2022-10-31T13:09:26;100990.22;;;18.21;100.00
3917;BME280;1973;50.518;7.318;2022-10-31T13:11:59;100991.03;;;18.22;100.00
3917;BME280;1973;50.518;7.318;2022-10-31T13:14:39;100986.63;;;18.26;100.00
3917;BME280;1973;50.518;7.318;2022-10-31T13:17:18;100975.06;;;18.39;100.00
3917;BME280;1973;50.518;7.318;2022-10-31T13:19:49;100974.47;;;18.59;100.00
3917;BME280;1973;50.518;7.318;2022-10-31T13:22:21;100964.94;;;18.86;100.00
3917;BME280;1973;50.518;7.318;2022-10-31T13:24:57;100960.63;;;19.06;100.00
3917;BME280;1973;50.518;7.318;2022-10-31T13:27:27;100948.13;;;19.13;100.00
3917;BME280;1973;50.518;7.318;2022-10-31T13:30:16;100939.47;;;19.10;100.00
3917;BME280;1973;50.518;7.318;2022-10-31T13:32:47;100951.97;;;19.02;100.00
3917;BME280;1973;50.518;7.318;2022-10-31T13:35:31;100952.19;;;18.95;100.00
3917;BME280;1973;50.518;7.318;2022-10-31T13:40:54;100957.28;;;18.72;100.00
3917;BME280;1973;50.518;7.318;2022-10-31T13:46:24;100965.59;;;18.40;100.00
3917;BME280;1973;50.518;7.318;2022-10-31T13:48:51;100964.44;;;18.36;100.00
3917;BME280;1973;50.518;7.318;2022-10-31T13:51:28;100953.16;;;18.26;100.00
3917;BME280;1973;50.518;7.318;2022-10-31T13:56:27;100919.94;;;18.19;100.00
3917;BME280;1973;50.518;7.318;2022-10-31T14:01:33;100940.22;;;18.15;100.00
3917;BME280;1973;50.518;7.318;2022-10-31T14:04:03;100928.56;;;18.18;100.00
3917;BME280;1973;50.518;7.318;2022-10-31T14:09:28;100908.69;;;18.36;100.00
3917;BME280;1973;50.518;7.318;2022-10-31T14:11:58;100898.84;;;18.55;100.00
3917;BME280;1973;50.518;7.318;2022-10-31T14:14:31;100899.56;;;18.77;100.00
3917;BME280;1973;50.518;7.318;2022-10-31T14:17:00;100893.34;;;19.02;100.00
3917;BME280;1973;50.518;7.318;2022-10-31T14:19:27;100887.91;;;19.27;100.00
3917;BME280;1973;50.518;7.318;2022-10-31T14:21:54;100878.81;;;19.42;100.00
3917;BME280;1973;50.518;7.318;2022-10-31T14:27:01;100885.09;;;19.69;100.00
3917;BME280;1973;50.518;7.318;2022-10-31T14:29:30;100888.75;;;19.85;100.00
3917;BME280;1973;50.518;7.318;2022-10-31T14:32:02;100877.91;;;19.99;100.00
3917;BME280;1973;50.518;7.318;2022-10-31T14:34:35;100874.59;;;20.17;100.00
3917;BME280;1973;50.518;7.318;2022-10-31T14:40:02;100860.94;;;20.51;100.00
3917;BME280;1973;50.518;7.318;2022-10-31T14:42:45;100862.03;;;20.60;100.00
3917;BME280;1973;50.518;7.318;2022-10-31T14:45:27;100853.66;;;20.65;100.00
3917;BME280;1973;50.518;7.318;2022-10-31T14:48:15;100857.84;;;20.67;100.00
3917;BME280;1973;50.518;7.318;2022-10-31T14:50:51;100850.28;;;20.73;100.00
3917;BME280;1973;50.518;7.318;2022-10-31T14:53:46;100843.25;;;20.80;100.00
3917;BME280;1973;50.518;7.318;2022-10-31T14:56:21;100841.88;;;20.83;100.00
3917;BME280;1973;50.518;7.318;2022-10-31T14:58:49;100834.03;;;20.90;100.00
3917;BME280;1973;50.518;7.318;2022-10-31T15:01:29;100820.84;;;20.96;100.00
3917;BME280;1973;50.518;7.318;2022-10-31T15:04:13;100812.97;;;21.03;100.00
3917;BME280;1973;50.518;7.318;2022-10-31T15:09:43;100811.84;;;21.14;100.00
3917;BME280;1973;50.518;7.318;2022-10-31T15:12:26;100809.03;;;21.19;100.00
3917;BME280;1973;50.518;7.318;2022-10-31T15:14:53;100810.47;;;21.16;100.00
3917;BME280;1973;50.518;7.318;2022-10-31T15:17:20;100802.91;;;21.12;100.00
3917;BME280;1973;50.518;7.318;2022-10-31T15:19:47;100803.75;;;21.02;100.00
3917;BME280;1973;50.518;7.318;2022-10-31T15:22:16;100798.47;;;20.91;100.00
3917;BME280;1973;50.518;7.318;2022-10-31T15:24:43;100811.13;;;20.73;100.00
3917;BME280;1973;50.518;7.318;2022-10-31T15:27:12;100805.81;;;20.56;100.00